createdAt,value
2022-08-07T00:02:46.678Z,73.49
2022-08-07T00:05:53.950Z,73.47
2022-08-07T00:09:07.849Z,73.42
2022-08-07T00:12:23.503Z,73.55
2022-08-07T00:15:38.015Z,73.54
2022-08-07T00:18:53.095Z,73.62
2022-08-07T00:22:02.117Z,73.58
2022-08-07T00:25:16.723Z,73.61
2022-08-07T00:28:23.946Z,73.49
2022-08-07T00:31:42.084Z,73.60
2022-08-07T00:34:49.402Z,73.66
2022-08-07T00:37:57.303Z,73.67
2022-08-07T00:41:04.279Z,73.76
2022-08-07T00:44:16.434Z,73.65
2022-08-07T00:48:08.317Z,73.65
2022-08-07T00:50:51.546Z,73.69
2022-08-07T00:53:58.070Z,73.59
2022-08-07T00:57:06.094Z,73.74
2022-08-07T01:00:15.831Z,73.71
2022-08-07T01:03:54.616Z,73.85
2022-08-07T01:06:49.249Z,73.84
2022-08-07T01:10:06.897Z,73.83
2022-08-07T01:13:17.157Z,74.03
2022-08-07T01:16:30.349Z,73.91
2022-08-07T01:19:38.403Z,74.05
2022-08-07T01:23:00.515Z,73.99
2022-08-07T01:26:13.368Z,74.04
2022-08-07T01:29:23.849Z,74.10
2022-08-07T01:32:34.810Z,73.93
2022-08-07T01:35:53.368Z,74.21
2022-08-07T01:39:01.162Z,74.18
2022-08-07T01:42:39.361Z,74.20
2022-08-07T01:45:36.847Z,74.40
2022-08-07T01:48:47.586Z,74.23
2022-08-07T01:52:01.600Z,74.40
2022-08-07T01:55:22.353Z,74.33
2022-08-07T01:58:33.938Z,74.33
2022-08-07T02:02:01.638Z,74.41
2022-08-07T02:05:16.195Z,74.55
2022-08-07T02:08:42.485Z,74.45
2022-08-07T02:12:03.482Z,74.58
2022-08-07T02:15:13.796Z,74.51
2022-08-07T02:18:22.627Z,74.37
2022-08-07T02:21:55.511Z,74.67
2022-08-07T02:25:07.139Z,74.46
2022-08-07T02:28:25.594Z,74.63
2022-08-07T02:31:34.928Z,74.55
2022-08-07T02:34:48.740Z,74.63
2022-08-07T02:37:59.583Z,74.67
2022-08-07T02:41:07.999Z,74.69
2022-08-07T02:44:18.015Z,74.84
2022-08-07T02:47:25.691Z,74.76
2022-08-07T02:50:34.308Z,74.99
2022-08-07T02:53:46.113Z,74.98
2022-08-07T02:56:53.235Z,75.04
2022-08-07T03:00:04.995Z,74.91
2022-08-07T03:03:22.575Z,75.05
2022-08-07T03:06:33.029Z,75.00
2022-08-07T03:09:45.450Z,74.98
2022-08-07T03:12:53.006Z,75.05
2022-08-07T03:15:59.383Z,75.08
2022-08-07T03:19:09.053Z,74.99
2022-08-07T03:22:18.817Z,75.05
2022-08-07T03:25:26.069Z,75.06
2022-08-07T03:28:42.067Z,75.09
2022-08-07T03:31:52.675Z,75.13
2022-08-07T03:35:17.867Z,75.17
2022-08-07T03:38:29.692Z,75.33
2022-08-07T03:41:41.979Z,75.36
2022-08-07T03:44:58.034Z,75.32
2022-08-07T03:48:10.071Z,75.39
2022-08-07T03:51:20.760Z,75.33
2022-08-07T03:54:36.043Z,75.40
2022-08-07T03:58:33.677Z,75.52
2022-08-07T04:01:22.465Z,75.42
2022-08-07T04:04:28.823Z,75.39
2022-08-07T04:07:42.761Z,75.51
2022-08-07T04:10:54.649Z,75.55
2022-08-07T04:14:37.661Z,75.72
2022-08-07T04:18:58.180Z,75.61
2022-08-07T04:21:13.715Z,75.63
2022-08-07T04:24:34.116Z,75.63
2022-08-07T04:27:59.276Z,75.63
2022-08-07T04:31:07.878Z,75.66
2022-08-07T04:34:27.586Z,75.65
2022-08-07T04:37:40.499Z,75.83
2022-08-07T04:41:07.015Z,75.75
2022-08-07T04:44:18.451Z,75.87
2022-08-07T04:47:58.796Z,75.75
2022-08-07T04:51:09.200Z,75.61
2022-08-07T04:54:30.048Z,75.85
2022-08-07T04:58:16.148Z,75.91
2022-08-07T05:01:19.281Z,75.60
2022-08-07T05:04:32.833Z,75.67
2022-08-07T05:07:48.675Z,75.71
2022-08-07T05:11:06.958Z,75.77
2022-08-07T05:14:55.792Z,75.59
2022-08-07T05:17:52.501Z,75.21
2022-08-07T05:21:04.828Z,75.15
2022-08-07T05:24:17.236Z,75.09
2022-08-07T05:28:02.703Z,75.25
2022-08-07T05:30:52.780Z,75.19
2022-08-07T05:34:01.119Z,75.17
2022-08-07T05:37:11.762Z,75.01
2022-08-07T05:40:20.613Z,75.02
2022-08-07T05:43:49.596Z,74.94
2022-08-07T05:46:54.156Z,74.87
2022-08-07T05:50:01.459Z,74.91
2022-08-07T05:53:07.866Z,74.79
2022-08-07T05:56:35.545Z,74.86
2022-08-07T05:59:57.493Z,74.56
2022-08-07T06:03:07.050Z,74.43
2022-08-07T06:06:18.931Z,74.53
2022-08-07T06:10:04.369Z,74.71
2022-08-07T06:12:52.739Z,74.49
2022-08-07T06:16:02.757Z,74.36
2022-08-07T06:19:18.082Z,74.06
2022-08-07T06:22:40.119Z,73.99
2022-08-07T06:25:54.647Z,74.14
2022-08-07T06:29:04.306Z,74.07
2022-08-07T06:32:13.361Z,74.28
2022-08-07T06:35:19.611Z,74.24
2022-08-07T06:38:28.790Z,73.94
2022-08-07T06:42:02.477Z,73.63
2022-08-07T06:45:12.270Z,73.89
2022-08-07T07:00:17.780Z,73.17
2022-08-07T07:03:39.811Z,72.70
2022-08-07T07:07:00.510Z,72.49
2022-08-07T07:10:08.725Z,72.30
2022-08-07T07:13:41.449Z,72.00
2022-08-07T07:16:53.486Z,71.68
2022-08-07T07:20:03.972Z,71.40
2022-08-07T07:24:08.821Z,71.31
2022-08-07T07:26:39.735Z,71.09
2022-08-07T07:30:07.410Z,70.71
2022-08-07T07:33:19.990Z,70.71
2022-08-07T07:36:32.696Z,70.61
2022-08-07T07:39:52.092Z,70.23
2022-08-07T07:43:15.135Z,70.00
2022-08-07T07:46:40.358Z,69.78
2022-08-07T07:50:34.145Z,69.50
2022-08-07T07:53:25.647Z,69.42
2022-08-07T07:56:33.184Z,69.06
2022-08-07T07:59:52.813Z,69.20
2022-08-07T08:03:08.051Z,68.62
2022-08-07T08:06:16.102Z,68.37
2022-08-07T08:09:24.620Z,67.67
2022-08-07T08:12:52.105Z,67.34
2022-08-07T08:16:01.947Z,67.31
2022-08-07T08:20:15.757Z,67.01
2022-08-07T08:22:58.618Z,66.71
2022-08-07T08:26:25.209Z,66.42
2022-08-07T08:29:37.792Z,66.26
2022-08-07T08:33:04.039Z,65.69
2022-08-07T08:36:13.651Z,65.65
2022-08-07T08:39:22.785Z,65.38
2022-08-07T08:42:33.593Z,64.73
2022-08-07T08:45:59.003Z,63.90
2022-08-07T08:49:13.734Z,64.24
2022-08-07T08:52:23.908Z,64.08
2022-08-07T08:55:54.649Z,63.40
2022-08-07T08:59:13.590Z,63.70
2022-08-07T09:02:35.220Z,63.54
2022-08-07T09:05:49.741Z,62.54
2022-08-07T09:09:09.671Z,62.60
2022-08-07T09:12:53.098Z,62.31
2022-08-07T09:16:24.458Z,62.10
2022-08-07T09:19:55.431Z,61.96
2022-08-07T09:24:33.733Z,61.69
2022-08-07T09:26:51.066Z,61.15
2022-08-07T09:30:08.325Z,61.13
2022-08-07T09:33:41.271Z,60.97
2022-08-07T09:37:10.941Z,60.66
2022-08-07T09:40:25.565Z,60.49
2022-08-07T09:44:05.644Z,60.22
2022-08-07T09:47:52.481Z,60.19
2022-08-07T09:51:05.437Z,59.55
2022-08-07T09:54:36.346Z,59.66
2022-08-07T09:58:32.014Z,59.89
2022-08-07T10:01:59.142Z,59.49
2022-08-07T10:05:59.461Z,59.31
2022-08-07T10:09:34.202Z,59.23
2022-08-07T10:13:03.602Z,58.49
2022-08-07T10:16:24.352Z,58.43
2022-08-07T10:19:54.222Z,58.27
2022-08-07T10:23:13.558Z,57.87
2022-08-07T10:26:38.326Z,57.48
2022-08-07T10:30:07.182Z,57.80
2022-08-07T10:34:05.006Z,57.80
2022-08-07T10:37:12.688Z,57.24
2022-08-07T10:40:30.314Z,56.97
2022-08-07T10:43:43.372Z,57.06
2022-08-07T10:47:01.265Z,56.75
2022-08-07T10:50:12.658Z,56.57
2022-08-07T10:53:41.943Z,56.31
2022-08-07T10:57:04.581Z,56.27
2022-08-07T11:00:36.633Z,56.05
2022-08-07T11:03:53.003Z,56.07
2022-08-07T11:07:24.694Z,56.05
2022-08-07T11:10:52.277Z,55.69
2022-08-07T11:14:45.310Z,55.59
2022-08-07T11:17:45.811Z,55.33
2022-08-07T11:21:04.303Z,55.52
2022-08-07T11:24:19.703Z,55.11
2022-08-07T11:28:01.624Z,54.73
2022-08-07T11:31:04.112Z,54.77
2022-08-07T11:34:23.563Z,54.76
2022-08-07T11:37:58.146Z,54.12
2022-08-07T11:41:30.993Z,54.37
2022-08-07T11:44:58.013Z,53.99
2022-08-07T11:48:32.237Z,54.12
2022-08-07T11:52:04.775Z,53.71
2022-08-07T11:56:11.915Z,53.61
2022-08-07T11:59:02.445Z,54.06
2022-08-07T12:02:30.263Z,53.06
2022-08-07T12:05:50.524Z,53.19
2022-08-07T12:09:16.246Z,52.26
2022-08-07T12:12:36.898Z,52.58
2022-08-07T12:16:06.027Z,52.64
2022-08-07T12:19:21.348Z,52.30
2022-08-07T12:22:47.262Z,52.51
2022-08-07T12:26:29.028Z,52.05
2022-08-07T12:29:40.389Z,52.17
2022-08-07T12:32:53.841Z,52.11
2022-08-07T12:36:02.335Z,51.68
2022-08-07T12:39:43.605Z,51.42
2022-08-07T12:42:38.007Z,51.42
2022-08-07T12:46:15.781Z,51.31
2022-08-07T12:49:51.674Z,51.19
2022-08-07T12:53:18.558Z,50.98
2022-08-07T12:56:32.403Z,50.63
2022-08-07T12:59:54.354Z,50.75
2022-08-07T13:03:27.019Z,50.82
2022-08-07T13:08:13.539Z,51.03
2022-08-07T13:10:59.481Z,50.85
2022-08-07T13:14:17.760Z,50.77
2022-08-07T13:17:34.753Z,51.04
2022-08-07T13:20:51.932Z,50.76
2022-08-07T13:24:07.626Z,50.74
2022-08-07T13:27:22.039Z,50.52
2022-08-07T13:30:39.905Z,50.43
2022-08-07T13:34:34.652Z,50.73
2022-08-07T13:37:27.133Z,50.67
2022-08-07T13:40:42.846Z,50.53
2022-08-07T13:43:52.716Z,50.59
2022-08-07T13:47:04.792Z,50.73
2022-08-07T13:50:36.633Z,50.39
2022-08-07T13:54:00.238Z,50.28
2022-08-07T13:57:14.524Z,50.57
2022-08-07T14:00:54.087Z,50.07
2022-08-07T14:04:07.587Z,50.33
2022-08-07T14:07:15.710Z,50.03
2022-08-07T14:10:28.329Z,50.14
2022-08-07T14:13:36.633Z,49.91
2022-08-07T14:16:53.005Z,49.75
2022-08-07T14:20:39.922Z,49.50
2022-08-07T14:24:00.056Z,49.34
2022-08-07T14:27:16.263Z,49.26
2022-08-07T14:30:34.155Z,49.37
2022-08-07T14:33:44.784Z,49.31
2022-08-07T14:36:55.891Z,49.23
2022-08-07T14:40:18.044Z,49.32
2022-08-07T14:43:58.470Z,48.86
2022-08-07T14:50:28.148Z,48.68
2022-08-07T14:54:03.529Z,48.70
2022-08-07T14:57:08.122Z,48.49
2022-08-07T15:03:52.464Z,48.48
2022-08-07T15:07:00.921Z,48.55
2022-08-07T15:10:11.223Z,48.23
2022-08-07T15:16:55.768Z,48.04
2022-08-07T15:20:32.871Z,48.20
2022-08-07T15:27:15.395Z,47.97
2022-08-07T15:30:21.910Z,48.02
2022-08-07T15:33:33.847Z,47.74
2022-08-07T15:37:03.964Z,47.60
2022-08-07T15:40:33.770Z,47.57
2022-08-07T15:43:55.702Z,47.79
2022-08-07T15:47:16.890Z,47.61
2022-08-07T15:53:58.340Z,47.42
2022-08-07T15:57:10.597Z,47.58
2022-08-07T16:00:38.027Z,47.85
2022-08-07T16:03:57.399Z,47.64
2022-08-07T16:08:31.520Z,47.72
2022-08-07T16:10:37.593Z,47.47
2022-08-07T16:14:00.184Z,47.31
2022-08-07T16:18:01.550Z,47.39
2022-08-07T16:22:01.226Z,47.36
2022-08-07T16:24:35.560Z,47.38
2022-08-07T16:27:57.086Z,47.17
2022-08-07T16:31:50.336Z,47.23
2022-08-07T16:34:48.825Z,47.08
2022-08-07T16:38:15.990Z,47.21
2022-08-07T16:41:48.580Z,47.16
2022-08-07T16:46:34.669Z,47.34
2022-08-07T16:50:28.615Z,46.96
2022-08-07T16:54:01.469Z,47.11
2022-08-07T16:58:01.076Z,47.25
2022-08-07T17:01:15.930Z,47.17
2022-08-07T17:04:36.950Z,47.42
2022-08-07T17:07:58.150Z,47.43
2022-08-07T17:11:14.420Z,47.64
2022-08-07T17:14:31.955Z,48.25
2022-08-07T17:17:46.441Z,48.46
2022-08-07T17:20:54.902Z,48.27
2022-08-07T17:24:23.484Z,48.67
2022-08-07T17:27:50.808Z,49.04
2022-08-07T17:31:16.353Z,49.61
2022-08-07T17:34:34.558Z,49.79
2022-08-07T17:38:06.037Z,50.11
2022-08-07T17:42:04.580Z,50.25
2022-08-07T17:44:54.572Z,50.53
2022-08-07T17:48:10.280Z,50.67
2022-08-07T17:51:23.948Z,50.87
2022-08-07T17:54:55.310Z,51.32
2022-08-07T17:58:05.216Z,51.60
2022-08-07T18:01:21.850Z,51.90
2022-08-07T18:04:36.177Z,52.15
2022-08-07T18:07:47.483Z,52.42
2022-08-07T18:12:06.635Z,52.64
2022-08-07T18:14:45.020Z,53.02
2022-08-07T18:18:45.765Z,53.23
2022-08-07T18:21:53.498Z,53.49
2022-08-07T18:25:19.067Z,53.63
2022-08-07T18:28:58.732Z,53.92
2022-08-07T18:32:17.984Z,54.26
2022-08-07T18:35:51.812Z,54.34
2022-08-07T18:40:06.667Z,54.71
2022-08-07T18:42:46.217Z,55.07
2022-08-07T18:46:24.406Z,55.26
2022-08-07T18:50:31.521Z,55.34
2022-08-07T18:53:39.779Z,55.68
2022-08-07T18:57:29.421Z,55.79
2022-08-07T19:00:33.221Z,56.14
2022-08-07T19:03:52.135Z,56.24
2022-08-07T19:07:03.434Z,56.42
2022-08-07T19:10:21.482Z,56.60
2022-08-07T19:13:37.714Z,56.89
2022-08-07T19:17:07.831Z,56.99
2022-08-07T19:20:29.954Z,57.29
2022-08-07T19:23:58.849Z,57.35
2022-08-07T19:28:57.639Z,57.62
2022-08-07T19:31:06.375Z,57.72
2022-08-07T19:34:04.775Z,57.85
2022-08-07T19:37:17.299Z,58.01
2022-08-07T19:40:31.436Z,58.24
2022-08-07T19:43:49.536Z,58.37
2022-08-07T19:47:10.854Z,58.50
2022-08-07T19:50:44.510Z,58.66
2022-08-07T19:54:34.783Z,58.92
2022-08-07T19:58:04.779Z,59.06
2022-08-07T20:00:55.274Z,59.23
2022-08-07T20:04:03.530Z,59.38
2022-08-07T20:07:13.966Z,59.46
2022-08-07T20:10:55.237Z,59.60
2022-08-07T20:14:03.262Z,59.66
2022-08-07T20:17:14.911Z,59.88
2022-08-07T20:20:26.730Z,59.83
2022-08-07T20:23:42.833Z,60.08
2022-08-07T20:26:56.552Z,60.24
2022-08-07T20:30:07.539Z,60.26
2022-08-07T20:33:24.336Z,60.53
2022-08-07T20:36:51.741Z,60.58
2022-08-07T20:40:03.208Z,60.66
2022-08-07T20:43:19.676Z,60.81
2022-08-07T20:46:32.311Z,60.89
2022-08-07T20:49:59.717Z,61.05
2022-08-07T20:53:11.586Z,61.17
2022-08-07T20:56:25.820Z,61.25
2022-08-07T21:00:06.465Z,61.37
2022-08-07T21:03:03.280Z,61.54
2022-08-07T21:06:25.866Z,61.68
2022-08-07T21:09:53.206Z,61.66
2022-08-07T21:13:06.158Z,61.80
2022-08-07T21:16:14.559Z,61.90
2022-08-07T21:19:32.552Z,62.08
2022-08-07T21:22:55.844Z,62.18
2022-08-07T21:26:18.251Z,62.20
2022-08-07T21:29:33.476Z,62.37
2022-08-07T21:32:54.188Z,62.49
2022-08-07T21:36:11.959Z,62.57
2022-08-07T21:39:46.302Z,62.68
2022-08-07T21:43:00.974Z,62.84
2022-08-07T21:46:31.317Z,62.96
2022-08-07T21:50:01.076Z,63.10
2022-08-07T21:53:14.124Z,63.24
2022-08-07T21:56:39.612Z,63.20
2022-08-07T22:00:04.383Z,63.29
2022-08-07T22:03:18.740Z,63.39
2022-08-07T22:06:31.484Z,63.36
2022-08-07T22:09:54.006Z,63.67
2022-08-07T22:13:03.078Z,63.70
2022-08-07T22:16:44.258Z,63.64
2022-08-07T22:19:57.285Z,63.70
2022-08-07T22:23:13.754Z,63.83
2022-08-07T22:26:25.893Z,63.96
2022-08-07T22:29:47.991Z,63.90
2022-08-07T22:33:07.516Z,64.08
2022-08-07T22:36:26.093Z,64.06
2022-08-07T22:39:52.940Z,64.13
2022-08-07T22:43:11.145Z,64.27
2022-08-07T22:47:05.937Z,64.27
2022-08-07T22:50:48.947Z,64.40
2022-08-07T22:54:09.451Z,64.39
2022-08-07T22:57:37.383Z,64.45
2022-08-07T23:01:06.578Z,64.70
2022-08-07T23:04:36.250Z,64.68
2022-08-07T23:08:23.970Z,64.83
2022-08-07T23:11:49.971Z,64.84
2022-08-07T23:15:10.192Z,64.82
2022-08-07T23:18:32.044Z,65.01
2022-08-07T23:21:46.831Z,65.07
2022-08-07T23:25:10.881Z,65.18
2022-08-07T23:28:30.867Z,65.19
2022-08-07T23:34:20.271Z,65.26
2022-08-07T23:35:23.432Z,65.51
2022-08-07T23:38:43.241Z,65.41
2022-08-07T23:42:21.391Z,65.43
2022-08-07T23:46:03.525Z,65.58
2022-08-07T23:49:50.187Z,65.74
2022-08-07T23:53:08.503Z,65.77
2022-08-07T23:56:35.169Z,65.72
